createdAt,value
2018-12-14T00:00:20.105Z,60.27
2018-12-14T00:02:53.951Z,60.48
2018-12-14T00:05:25.048Z,59.75
2018-12-14T00:07:58.648Z,60.29
2018-12-14T00:10:32.572Z,60.68
2018-12-14T00:13:03.590Z,60.16
2018-12-14T00:15:43.886Z,61.49
2018-12-14T00:18:17.068Z,60.63
2018-12-14T00:20:51.067Z,61.98
2018-12-14T00:23:31.601Z,59.85
2018-12-14T00:26:03.023Z,61.52
2018-12-14T00:28:33.872Z,60.46
2018-12-14T00:31:07.822Z,61.21
2018-12-14T00:33:39.076Z,60.27
2018-12-14T00:36:12.871Z,58.96
2018-12-14T00:38:46.656Z,59.60
2018-12-14T00:41:20.708Z,60.20
2018-12-14T00:43:51.256Z,60.07
2018-12-14T00:46:24.388Z,59.27
2018-12-14T00:48:58.291Z,60.84
2018-12-14T00:51:32.308Z,60.26
2018-12-14T00:54:03.399Z,60.65
2018-12-14T00:56:37.101Z,61.54
2018-12-14T00:59:10.779Z,61.88
2018-12-14T01:01:49.730Z,60.94
2018-12-14T01:04:20.196Z,60.36
2018-12-14T01:06:54.017Z,61.21
2018-12-14T01:09:32.871Z,60.46
2018-12-14T01:12:06.060Z,62.75
2018-12-14T01:14:36.989Z,62.39
2018-12-14T01:17:07.538Z,60.02
2018-12-14T01:19:42.530Z,60.54
2018-12-14T01:22:16.677Z,60.86
2018-12-14T01:24:47.788Z,59.14
2018-12-14T01:27:21.386Z,61.29
2018-12-14T01:29:55.416Z,59.96
2018-12-14T01:32:29.333Z,60.49
2018-12-14T01:35:01.596Z,60.69
2018-12-14T01:37:35.406Z,61.44
2018-12-14T01:40:06.469Z,61.13
2018-12-14T01:42:37.292Z,60.98
2018-12-14T01:45:11.089Z,61.48
2018-12-14T01:47:40.395Z,60.89
2018-12-14T01:50:14.012Z,59.87
2018-12-14T01:52:48.705Z,61.24
2018-12-14T01:55:22.739Z,61.38
2018-12-14T01:57:54.983Z,61.09
2018-12-14T02:00:23.608Z,60.68
2018-12-14T02:02:57.642Z,60.57
2018-12-14T02:05:28.646Z,61.05
2018-12-14T02:08:02.238Z,61.41
2018-12-14T02:10:36.125Z,61.03
2018-12-14T02:13:09.896Z,62.92
2018-12-14T02:15:40.379Z,60.26
2018-12-14T02:18:11.090Z,61.07
2018-12-14T02:20:40.209Z,61.55
2018-12-14T02:23:11.327Z,60.87
2018-12-14T02:25:44.930Z,61.07
2018-12-14T02:28:14.060Z,60.97
2018-12-14T02:30:46.180Z,61.26
2018-12-14T02:33:19.930Z,60.45
2018-12-14T02:35:51.232Z,62.45
2018-12-14T02:38:25.195Z,60.86
2018-12-14T02:40:55.340Z,63.65
2018-12-14T02:43:24.321Z,61.73
2018-12-14T02:45:57.827Z,64.05
2018-12-14T02:48:28.867Z,60.84
2018-12-14T02:51:01.009Z,61.58
2018-12-14T02:53:31.816Z,61.19
2018-12-14T02:56:02.796Z,61.49
2018-12-14T02:58:40.320Z,62.53
2018-12-14T03:01:14.062Z,62.60
2018-12-14T03:03:48.882Z,62.49
2018-12-14T03:06:25.632Z,61.87
2018-12-14T03:08:56.064Z,61.83
2018-12-14T03:11:30.040Z,62.72
2018-12-14T03:14:01.087Z,61.79
2018-12-14T03:16:30.252Z,62.02
2018-12-14T03:19:01.279Z,61.42
2018-12-14T03:21:36.083Z,61.79
2018-12-14T03:24:07.105Z,63.06
2018-12-14T03:26:38.160Z,62.06
2018-12-14T03:29:07.272Z,62.41
2018-12-14T03:31:42.061Z,62.55
2018-12-14T03:34:12.516Z,61.76
2018-12-14T03:36:46.289Z,61.81
2018-12-14T03:39:17.526Z,62.13
2018-12-14T03:41:49.325Z,62.62
2018-12-14T03:44:20.922Z,63.09
2018-12-14T03:46:54.141Z,62.22
2018-12-14T03:49:27.949Z,62.57
2018-12-14T03:51:59.156Z,62.25
2018-12-14T03:54:30.339Z,62.04
2018-12-14T03:57:04.056Z,62.27
2018-12-14T04:02:27.345Z,62.10
2018-12-14T04:04:54.740Z,62.47
2018-12-14T04:07:22.212Z,62.65
2018-12-14T04:09:49.668Z,61.88
2018-12-14T04:12:17.078Z,62.02
2018-12-14T04:14:44.481Z,61.52
2018-12-14T04:17:12.821Z,62.01
2018-12-14T04:19:40.219Z,61.97
2018-12-14T04:22:07.615Z,61.50
2018-12-14T04:24:35.014Z,62.04
2018-12-14T04:27:02.407Z,62.70
2018-12-14T04:29:29.806Z,61.97
2018-12-14T04:31:57.203Z,63.32
2018-12-14T04:34:24.684Z,63.04
2018-12-14T04:36:52.090Z,62.32
2018-12-14T04:39:19.496Z,61.89
2018-12-14T04:41:46.904Z,61.95
2018-12-14T04:44:14.306Z,64.18
2018-12-14T04:46:41.713Z,62.37
2018-12-14T04:49:09.116Z,62.21
2018-12-14T04:51:36.496Z,63.12
2018-12-14T04:54:03.908Z,62.22
2018-12-14T04:56:33.252Z,62.35
2018-12-14T04:59:00.656Z,62.94
2018-12-14T05:01:28.055Z,63.26
2018-12-14T05:03:55.447Z,62.77
2018-12-14T05:06:22.840Z,62.44
2018-12-14T05:08:50.240Z,62.31
2018-12-14T05:11:17.631Z,62.41
2018-12-14T05:13:45.040Z,62.28
2018-12-14T05:16:12.424Z,62.66
2018-12-14T05:18:39.841Z,63.21
2018-12-14T05:21:08.241Z,62.32
2018-12-14T05:23:35.636Z,62.00
2018-12-14T05:26:03.047Z,62.28
2018-12-14T05:28:30.443Z,61.79
2018-12-14T05:30:57.844Z,62.81
2018-12-14T05:33:25.255Z,61.68
2018-12-14T05:35:52.648Z,61.52
2018-12-14T05:38:20.038Z,62.60
2018-12-14T05:40:47.444Z,62.96
2018-12-14T05:43:14.860Z,64.96
2018-12-14T05:45:42.346Z,62.18
2018-12-14T05:48:09.743Z,62.39
2018-12-14T05:50:37.227Z,62.52
2018-12-14T05:53:04.625Z,62.25
2018-12-14T05:55:32.046Z,62.15
2018-12-14T05:57:59.432Z,62.92
2018-12-14T06:00:26.835Z,60.91
2018-12-14T06:02:54.301Z,61.65
2018-12-14T06:05:21.821Z,61.61
2018-12-14T06:07:49.220Z,61.14
2018-12-14T06:10:16.688Z,62.17
2018-12-14T06:12:44.080Z,61.84
2018-12-14T06:15:11.471Z,62.58
2018-12-14T06:17:42.112Z,62.41
2018-12-14T06:20:09.568Z,62.16
2018-12-14T06:22:36.965Z,63.05
2018-12-14T06:25:04.832Z,63.22
2018-12-14T06:27:32.318Z,62.42
2018-12-14T06:29:59.905Z,63.51
2018-12-14T06:32:27.313Z,64.96
2018-12-14T06:34:54.745Z,62.21
2018-12-14T06:37:22.299Z,60.23
2018-12-14T06:39:49.700Z,61.99
2018-12-14T06:42:17.251Z,61.89
2018-12-14T06:44:44.650Z,62.79
2018-12-14T06:47:12.548Z,59.10
2018-12-14T06:49:39.935Z,61.81
2018-12-14T06:52:09.302Z,60.23
2018-12-14T06:54:38.659Z,61.28
2018-12-14T06:57:06.129Z,59.94
2018-12-14T06:59:34.495Z,58.90
2018-12-14T07:02:01.891Z,60.50
2018-12-14T07:04:29.279Z,59.42
2018-12-14T07:06:56.694Z,57.77
2018-12-14T07:09:24.080Z,58.72
2018-12-14T07:11:51.517Z,58.43
2018-12-14T07:14:18.963Z,57.76
2018-12-14T07:16:46.348Z,59.13
2018-12-14T07:19:13.750Z,59.58
2018-12-14T07:21:41.144Z,59.39
2018-12-14T07:24:08.583Z,58.06
2018-12-14T07:26:36.151Z,58.32
2018-12-14T07:29:03.645Z,58.69
2018-12-14T07:31:31.088Z,59.28
2018-12-14T07:33:58.573Z,56.87
2018-12-14T07:36:26.884Z,58.65
2018-12-14T07:38:54.284Z,58.40
2018-12-14T07:41:21.675Z,57.96
2018-12-14T07:43:49.079Z,57.99
2018-12-14T07:46:16.555Z,57.09
2018-12-14T07:48:43.956Z,57.14
2018-12-14T07:51:11.344Z,58.73
2018-12-14T07:53:38.747Z,56.38
2018-12-14T07:56:06.141Z,56.96
2018-12-14T07:58:33.607Z,57.17
2018-12-14T08:01:01.001Z,56.90
2018-12-14T08:03:28.404Z,57.68
2018-12-14T08:05:55.798Z,58.53
2018-12-14T08:08:23.191Z,57.93
2018-12-14T08:10:50.589Z,57.74
2018-12-14T08:13:19.429Z,58.58
2018-12-14T08:15:46.966Z,57.35
2018-12-14T08:18:15.202Z,57.98
2018-12-14T08:20:42.596Z,57.48
2018-12-14T08:23:09.990Z,58.57
2018-12-14T08:25:37.393Z,58.08
2018-12-14T08:28:04.846Z,57.58
2018-12-14T08:30:32.224Z,57.91
2018-12-14T08:32:59.628Z,57.48
2018-12-14T08:35:27.027Z,57.80
2018-12-14T08:37:54.456Z,57.90
2018-12-14T08:40:21.847Z,59.03
2018-12-14T08:42:49.320Z,59.33
2018-12-14T08:45:16.771Z,58.74
2018-12-14T08:47:44.212Z,59.16
2018-12-14T08:50:11.624Z,59.63
2018-12-14T08:52:39.012Z,59.19
2018-12-14T08:55:06.521Z,58.88
2018-12-14T08:57:33.998Z,58.73
2018-12-14T09:00:01.419Z,58.27
2018-12-14T09:02:28.896Z,58.85
2018-12-14T09:04:56.298Z,59.06
2018-12-14T09:07:24.850Z,58.94
2018-12-14T09:09:52.398Z,58.38
2018-12-14T09:12:19.834Z,59.10
2018-12-14T09:14:47.240Z,58.90
2018-12-14T09:17:14.631Z,58.09
2018-12-14T09:19:42.088Z,59.09
2018-12-14T09:22:09.493Z,59.08
2018-12-14T09:24:36.890Z,59.73
2018-12-14T09:27:04.350Z,58.55
2018-12-14T09:29:31.788Z,58.35
2018-12-14T09:31:59.409Z,58.15
2018-12-14T09:34:26.892Z,58.12
2018-12-14T09:36:54.299Z,57.79
2018-12-14T09:39:21.692Z,58.72
2018-12-14T09:41:49.172Z,59.77
2018-12-14T09:44:16.613Z,57.77
2018-12-14T09:46:44.009Z,58.27
2018-12-14T09:49:11.396Z,57.17
2018-12-14T09:51:38.787Z,56.83
2018-12-14T09:54:06.327Z,57.58
2018-12-14T09:56:33.751Z,56.04
2018-12-14T09:59:01.164Z,57.49
2018-12-14T10:01:35.022Z,57.31
2018-12-14T10:04:02.470Z,57.79
2018-12-14T10:06:29.885Z,56.23
2018-12-14T10:08:57.405Z,56.40
2018-12-14T10:11:24.786Z,57.23
2018-12-14T10:13:52.200Z,57.17
2018-12-14T10:16:19.608Z,56.41
2018-12-14T10:18:47.454Z,57.03
2018-12-14T10:21:14.856Z,57.80
2018-12-14T10:23:42.264Z,57.39
2018-12-14T10:26:09.672Z,56.64
2018-12-14T10:28:37.071Z,56.54
2018-12-14T10:31:04.544Z,56.78
2018-12-14T10:33:31.959Z,56.19
2018-12-14T10:36:00.354Z,56.48
2018-12-14T10:38:27.773Z,57.27
2018-12-14T10:40:55.176Z,56.07
2018-12-14T10:43:22.590Z,55.82
2018-12-14T10:45:50.255Z,56.11
2018-12-14T10:48:17.680Z,57.07
2018-12-14T10:50:45.109Z,56.78
2018-12-14T10:53:12.536Z,56.92
2018-12-14T10:55:40.978Z,57.85
2018-12-14T10:58:08.640Z,57.00
2018-12-14T11:00:41.626Z,57.17
2018-12-14T11:03:11.099Z,57.38
2018-12-14T11:05:38.526Z,57.23
2018-12-14T11:08:07.005Z,57.15
2018-12-14T11:10:34.432Z,56.20
2018-12-14T11:13:01.828Z,56.65
2018-12-14T11:15:30.336Z,56.41
2018-12-14T11:17:57.953Z,57.20
2018-12-14T11:20:25.363Z,57.17
2018-12-14T11:22:53.712Z,56.68
2018-12-14T11:25:21.125Z,57.43
2018-12-14T11:27:48.527Z,56.27
2018-12-14T11:30:16.007Z,55.72
2018-12-14T11:32:44.365Z,55.70
2018-12-14T11:35:11.840Z,55.78
2018-12-14T11:37:39.244Z,56.95
2018-12-14T11:40:06.712Z,57.32
2018-12-14T11:42:34.116Z,56.91
2018-12-14T11:45:02.514Z,58.42
2018-12-14T11:47:35.046Z,57.31
2018-12-14T11:50:02.459Z,56.46
2018-12-14T11:52:29.869Z,57.15
2018-12-14T11:54:57.285Z,56.35
2018-12-14T11:57:24.688Z,57.89
2018-12-14T11:59:52.084Z,57.18
2018-12-14T12:02:19.490Z,57.65
2018-12-14T12:04:47.867Z,57.22
2018-12-14T12:07:22.662Z,58.29
2018-12-14T12:09:51.057Z,57.68
2018-12-14T12:12:18.558Z,58.14
2018-12-14T12:14:45.959Z,59.43
2018-12-14T12:17:13.369Z,59.05
2018-12-14T12:19:42.733Z,58.84
2018-12-14T12:22:10.225Z,59.08
2018-12-14T12:24:37.620Z,58.27
2018-12-14T12:27:05.044Z,58.13
2018-12-14T12:29:32.525Z,59.92
2018-12-14T12:31:59.933Z,57.72
2018-12-14T12:34:27.343Z,58.15
2018-12-14T12:36:54.846Z,58.91
2018-12-14T12:39:22.327Z,57.90
2018-12-14T12:41:49.761Z,59.92
2018-12-14T12:44:17.189Z,58.54
2018-12-14T12:46:44.647Z,60.79
2018-12-14T12:49:12.088Z,58.72
2018-12-14T12:51:39.768Z,59.04
2018-12-14T12:54:07.171Z,59.41
2018-12-14T12:56:37.767Z,59.38
2018-12-14T12:59:05.176Z,58.52
2018-12-14T13:01:32.657Z,58.62
2018-12-14T13:04:04.483Z,59.50
2018-12-14T13:06:33.924Z,59.75
2018-12-14T13:09:01.325Z,59.56
2018-12-14T13:11:31.931Z,60.00
2018-12-14T13:14:02.528Z,58.88
2018-12-14T13:16:29.938Z,59.81
2018-12-14T13:18:57.348Z,59.67
2018-12-14T13:21:24.756Z,58.48
2018-12-14T13:23:52.153Z,59.71
2018-12-14T13:26:19.644Z,59.89
2018-12-14T13:28:51.827Z,59.10
2018-12-14T13:31:20.284Z,59.93
2018-12-14T13:33:47.688Z,59.66
2018-12-14T13:36:16.138Z,59.46
2018-12-14T13:38:43.555Z,61.71
2018-12-14T13:41:12.015Z,59.67
2018-12-14T13:43:39.428Z,61.30
2018-12-14T13:46:06.822Z,60.28
2018-12-14T13:48:34.210Z,60.55
2018-12-14T13:51:01.632Z,61.05
2018-12-14T13:53:29.025Z,60.84
2018-12-14T13:55:56.516Z,60.43
2018-12-14T13:58:24.012Z,61.19
2018-12-14T14:00:51.488Z,60.99
2018-12-14T14:03:19.915Z,63.40
2018-12-14T14:05:47.324Z,63.21
2018-12-14T14:08:14.780Z,60.59
2018-12-14T14:10:48.297Z,61.65
2018-12-14T14:13:32.456Z,61.09
2018-12-14T14:15:59.863Z,61.41
2018-12-14T14:18:30.009Z,60.71
2018-12-14T14:20:57.433Z,61.65
2018-12-14T14:23:24.837Z,60.81
2018-12-14T14:25:52.248Z,62.81
2018-12-14T14:28:19.647Z,60.18
2018-12-14T14:30:47.079Z,60.40
2018-12-14T14:33:14.498Z,61.30
2018-12-14T14:35:41.888Z,59.31
2018-12-14T14:38:09.319Z,62.28
2018-12-14T14:40:55.645Z,59.86
2018-12-14T14:43:23.059Z,61.61
2018-12-14T14:45:50.508Z,61.83
2018-12-14T14:48:17.919Z,61.61
2018-12-14T14:50:46.313Z,58.87
2018-12-14T14:53:13.790Z,62.08
2018-12-14T14:55:41.178Z,61.23
2018-12-14T14:58:09.528Z,60.77
2018-12-14T15:00:37.961Z,59.89
2018-12-14T15:03:05.625Z,58.10
2018-12-14T15:05:33.032Z,58.73
2018-12-14T15:08:00.435Z,63.95
2018-12-14T15:10:28.500Z,62.45
2018-12-14T15:12:55.884Z,60.06
2018-12-14T15:15:23.274Z,59.84
2018-12-14T15:17:50.821Z,60.11
2018-12-14T15:20:18.218Z,58.89
2018-12-14T15:22:45.878Z,59.26
2018-12-14T15:25:13.612Z,60.02
2018-12-14T15:27:41.059Z,60.88
2018-12-14T15:30:08.523Z,60.70
2018-12-14T15:32:35.973Z,60.86
2018-12-14T15:35:04.137Z,60.22
2018-12-14T15:37:32.661Z,58.69
2018-12-14T15:40:24.116Z,60.00
2018-12-14T15:42:54.666Z,56.97
2018-12-14T15:45:22.059Z,61.69
2018-12-14T15:47:50.456Z,58.80
2018-12-14T15:50:18.848Z,60.02
2018-12-14T15:52:51.460Z,57.71
2018-12-14T15:55:18.861Z,58.79
2018-12-14T15:57:46.247Z,56.20
2018-12-14T16:00:14.165Z,56.78
2018-12-14T16:02:44.741Z,57.64
2018-12-14T16:05:15.528Z,58.00
2018-12-14T16:07:50.150Z,58.32
2018-12-14T16:10:26.021Z,57.67
2018-12-14T16:12:59.904Z,55.70
2018-12-14T16:15:31.121Z,56.28
2018-12-14T16:18:02.318Z,55.85
2018-12-14T16:20:36.286Z,55.72
2018-12-14T16:23:05.560Z,55.32
2018-12-14T16:25:39.460Z,54.88
2018-12-14T16:28:12.659Z,56.08
2018-12-14T16:30:46.563Z,55.34
2018-12-14T16:33:20.551Z,54.76
2018-12-14T16:35:49.780Z,55.17
2018-12-14T16:38:23.769Z,54.91
2018-12-14T16:40:54.991Z,55.28
2018-12-14T16:43:28.576Z,54.88
2018-12-14T16:46:02.575Z,55.50
2018-12-14T16:48:33.619Z,55.71
2018-12-14T16:51:04.746Z,56.20
2018-12-14T16:53:37.736Z,55.45
2018-12-14T16:56:11.649Z,55.35
2018-12-14T16:58:40.859Z,54.11
2018-12-14T17:01:11.857Z,54.87
2018-12-14T17:03:42.941Z,56.38
2018-12-14T17:06:16.697Z,55.75
2018-12-14T17:08:47.961Z,54.79
2018-12-14T17:11:21.867Z,54.84
2018-12-14T17:13:53.017Z,54.65
2018-12-14T17:16:23.847Z,56.42
2018-12-14T17:18:54.964Z,54.14
2018-12-14T17:21:25.920Z,55.44
2018-12-14T17:23:56.965Z,52.81
2018-12-14T17:26:30.889Z,54.70
2018-12-14T17:29:03.988Z,52.80
2018-12-14T17:31:33.204Z,53.22
2018-12-14T17:34:04.317Z,54.40
2018-12-14T17:36:38.375Z,55.87
2018-12-14T17:39:15.188Z,54.28
2018-12-14T17:41:48.425Z,56.70
2018-12-14T17:44:22.352Z,55.46
2018-12-14T17:46:56.358Z,53.07
2018-12-14T17:49:30.057Z,54.13
2018-12-14T17:52:00.547Z,55.84
2018-12-14T17:54:34.376Z,54.82
2018-12-14T17:57:05.614Z,56.50
2018-12-14T17:59:39.470Z,56.93
2018-12-14T18:02:19.985Z,56.64
2018-12-14T18:04:50.705Z,54.37
2018-12-14T18:07:21.836Z,57.19
2018-12-14T18:09:52.990Z,54.45
2018-12-14T18:12:26.783Z,54.44
2018-12-14T18:15:04.376Z,55.58
2018-12-14T18:17:35.513Z,54.74
2018-12-14T18:20:06.729Z,53.74
2018-12-14T18:22:40.649Z,53.45
2018-12-14T18:25:14.692Z,54.40
2018-12-14T18:27:48.300Z,54.14
2018-12-14T18:30:22.324Z,54.03
2018-12-14T18:32:51.518Z,54.65
2018-12-14T18:35:20.524Z,53.83
2018-12-14T18:37:51.450Z,55.18
2018-12-14T18:40:21.755Z,54.91
2018-12-14T18:42:56.871Z,55.68
2018-12-14T18:45:30.733Z,54.71
2018-12-14T18:47:59.926Z,56.05
2018-12-14T18:50:35.672Z,55.46
2018-12-14T18:53:05.986Z,55.58
2018-12-14T18:55:36.876Z,54.39
2018-12-14T18:58:07.852Z,54.34
2018-12-14T19:00:45.315Z,55.57
2018-12-14T19:03:12.721Z,55.92
2018-12-14T19:05:40.196Z,55.00
2018-12-14T19:08:07.589Z,54.31
2018-12-14T19:10:34.993Z,56.46
2018-12-14T19:13:02.377Z,56.39
2018-12-14T19:15:29.780Z,55.27
2018-12-14T19:17:57.174Z,57.13
2018-12-14T19:20:24.566Z,55.84
2018-12-14T19:22:51.960Z,56.49
2018-12-14T19:25:19.350Z,55.98
2018-12-14T19:27:46.739Z,54.40
2018-12-14T19:30:14.140Z,56.86
2018-12-14T19:32:41.544Z,55.09
2018-12-14T19:35:08.936Z,55.73
2018-12-14T19:37:36.338Z,55.49
2018-12-14T19:40:06.324Z,54.99
2018-12-14T19:42:33.725Z,55.09
2018-12-14T19:45:01.163Z,55.35
2018-12-14T19:47:28.655Z,57.18
2018-12-14T19:49:56.095Z,55.46
2018-12-14T19:52:23.624Z,55.42
2018-12-14T19:54:51.074Z,55.24
2018-12-14T19:57:18.472Z,54.69
2018-12-14T19:59:45.883Z,55.18
2018-12-14T20:02:13.279Z,55.79
2018-12-14T20:04:41.704Z,55.12
2018-12-14T20:07:12.676Z,54.79
2018-12-14T20:09:40.075Z,55.80
2018-12-14T20:12:10.647Z,55.34
2018-12-14T20:14:38.136Z,56.32
2018-12-14T20:17:06.489Z,55.74
2018-12-14T20:19:40.930Z,54.95
2018-12-14T20:22:11.591Z,54.99
2018-12-14T20:24:38.988Z,55.19
2018-12-14T20:27:09.674Z,55.10
2018-12-14T20:29:37.075Z,58.22
2018-12-14T20:32:06.483Z,55.50
2018-12-14T20:34:34.872Z,54.85
2018-12-14T20:37:02.329Z,55.11
2018-12-14T20:39:30.656Z,54.81
2018-12-14T20:41:58.047Z,55.58
2018-12-14T20:44:27.465Z,55.31
2018-12-14T20:46:55.796Z,55.17
2018-12-14T20:49:23.289Z,56.56
2018-12-14T20:51:50.684Z,54.54
2018-12-14T20:54:18.235Z,57.03
2018-12-14T20:56:51.761Z,54.86
2018-12-14T20:59:23.318Z,55.07
2018-12-14T21:01:50.704Z,57.69
2018-12-14T21:04:18.113Z,56.36
2018-12-14T21:06:58.163Z,55.27
2018-12-14T21:09:25.562Z,56.23
2018-12-14T21:11:52.951Z,55.31
2018-12-14T21:14:20.604Z,56.46
2018-12-14T21:16:48.977Z,54.89
2018-12-14T21:19:16.409Z,56.48
2018-12-14T21:21:43.884Z,54.20
2018-12-14T21:24:11.286Z,55.75
2018-12-14T21:26:39.676Z,57.09
2018-12-14T21:29:07.080Z,56.55
2018-12-14T21:31:34.487Z,56.71
2018-12-14T21:34:01.929Z,59.01
2018-12-14T21:36:30.331Z,56.43
2018-12-14T21:38:58.716Z,56.56
2018-12-14T21:41:28.116Z,57.45
2018-12-14T21:43:56.527Z,57.23
2018-12-14T21:46:32.575Z,57.23
2018-12-14T21:48:58.880Z,57.57
2018-12-14T21:51:26.341Z,56.65
2018-12-14T21:53:53.735Z,56.87
2018-12-14T21:56:27.579Z,57.46
2018-12-14T21:58:55.912Z,57.37
2018-12-14T22:01:23.311Z,57.66
2018-12-14T22:03:53.955Z,57.11
2018-12-14T22:06:21.366Z,56.52
2018-12-14T22:08:49.689Z,57.53
2018-12-14T22:11:17.117Z,57.66
2018-12-14T22:13:44.512Z,56.48
2018-12-14T22:16:12.933Z,57.70
2018-12-14T22:18:43.415Z,57.52
2018-12-14T22:21:18.328Z,57.80
2018-12-14T22:23:50.703Z,56.60
2018-12-14T22:26:25.424Z,56.97
2018-12-14T22:28:58.927Z,56.32
2018-12-14T22:31:26.329Z,57.31
2018-12-14T22:33:53.833Z,56.94
2018-12-14T22:36:23.175Z,57.50
2018-12-14T22:38:54.161Z,57.71
2018-12-14T22:41:21.542Z,57.11
2018-12-14T22:43:48.956Z,56.55
2018-12-14T22:46:16.367Z,57.18
2018-12-14T22:48:49.771Z,57.44
2018-12-14T22:51:17.321Z,58.27
2018-12-14T22:53:44.720Z,58.37
2018-12-14T22:56:19.167Z,58.11
2018-12-14T22:58:49.995Z,57.74
2018-12-14T23:01:18.344Z,58.05
2018-12-14T23:04:02.252Z,58.09
2018-12-14T23:06:31.658Z,58.15
2018-12-14T23:09:11.485Z,58.58
2018-12-14T23:11:52.493Z,57.20
2018-12-14T23:14:19.917Z,56.93
2018-12-14T23:16:52.223Z,57.12
2018-12-14T23:19:16.719Z,57.31
2018-12-14T23:21:44.093Z,58.46
2018-12-14T23:24:14.584Z,58.80
2018-12-14T23:26:41.972Z,57.88
2018-12-14T23:29:09.383Z,57.50
2018-12-14T23:31:36.777Z,56.88
2018-12-14T23:34:09.391Z,56.98
2018-12-14T23:36:36.836Z,58.53
2018-12-14T23:39:10.257Z,57.54
2018-12-14T23:41:37.651Z,58.30
2018-12-14T23:44:09.396Z,58.56
2018-12-14T23:46:40.028Z,58.14
2018-12-14T23:49:08.416Z,59.29
2018-12-14T23:51:35.876Z,58.16
2018-12-14T23:54:07.528Z,59.34
2018-12-14T23:56:40.901Z,58.62
2018-12-14T23:59:08.570Z,59.61
